createdAt,value
2023-05-10T00:02:49.422Z,2.47
2023-05-10T00:05:51.959Z,2.55
2023-05-10T00:08:54.420Z,2.43
2023-05-10T00:11:59.345Z,2.40
2023-05-10T00:15:01.831Z,2.30
2023-05-10T00:18:05.301Z,2.37
2023-05-10T00:21:07.737Z,2.20
2023-05-10T00:24:10.261Z,2.30
2023-05-10T00:27:12.776Z,2.55
2023-05-10T00:30:16.248Z,2.58
2023-05-10T00:33:19.328Z,2.30
2023-05-10T00:36:22.171Z,2.38
2023-05-10T00:39:24.752Z,2.60
2023-05-10T00:42:27.116Z,2.50
2023-05-10T00:45:34.460Z,2.60
2023-05-10T00:48:37.309Z,2.27
2023-05-10T00:51:40.087Z,2.30
2023-05-10T00:54:42.896Z,2.20
2023-05-10T00:57:45.582Z,2.75
2023-05-10T01:00:49.460Z,2.70
2023-05-10T01:03:52.228Z,2.55
2023-05-10T01:06:54.759Z,2.45
2023-05-10T01:09:57.824Z,2.60
2023-05-10T01:13:00.981Z,3.10
2023-05-10T01:16:04.377Z,2.58
2023-05-10T01:19:13.896Z,2.97
2023-05-10T01:22:41.059Z,2.53
2023-05-10T01:26:34.911Z,3.00
2023-05-10T01:29:51.494Z,2.38
2023-05-10T01:33:19.385Z,2.60
2023-05-10T01:37:03.817Z,2.83
2023-05-10T01:40:14.382Z,2.90
2023-05-10T01:43:24.151Z,2.43
2023-05-10T01:46:38.043Z,2.70
2023-05-10T01:49:48.655Z,2.47
2023-05-10T01:52:56.485Z,2.77
2023-05-10T01:56:01.428Z,2.22
2023-05-10T01:59:08.077Z,2.80
2023-05-10T02:02:13.216Z,2.30
2023-05-10T02:05:17.201Z,2.70
2023-05-10T02:08:21.975Z,2.97
2023-05-10T02:11:25.891Z,2.70
2023-05-10T02:14:29.970Z,3.00
2023-05-10T02:17:33.801Z,2.88
2023-05-10T02:20:38.027Z,2.78
2023-05-10T02:23:41.075Z,2.57
2023-05-10T02:26:45.258Z,3.00
2023-05-10T02:29:48.306Z,2.55
2023-05-10T02:32:53.417Z,3.33
2023-05-10T02:35:57.046Z,2.70
2023-05-10T02:39:03.082Z,3.17
2023-05-10T02:42:07.455Z,3.20
2023-05-10T02:45:14.283Z,3.17
2023-05-10T02:48:18.715Z,2.92
2023-05-10T02:51:25.869Z,2.70
2023-05-10T02:54:32.824Z,3.10
2023-05-10T02:57:38.332Z,2.67
2023-05-10T03:00:40.905Z,3.40
2023-05-10T03:03:43.709Z,3.25
2023-05-10T03:06:46.677Z,2.95
2023-05-10T03:09:50.461Z,2.90
2023-05-10T03:13:13.926Z,2.97
2023-05-10T03:16:20.495Z,2.87
2023-05-10T03:19:40.886Z,2.90
2023-05-10T03:22:48.241Z,3.10
2023-05-10T03:25:51.776Z,3.40
2023-05-10T03:28:55.444Z,2.75
2023-05-10T03:32:01.192Z,3.63
2023-05-10T03:35:10.095Z,3.05
2023-05-10T03:38:14.135Z,3.40
2023-05-10T03:41:16.586Z,3.55
2023-05-10T03:44:19.125Z,3.20
2023-05-10T03:47:21.523Z,2.77
2023-05-10T03:50:24.401Z,3.40
2023-05-10T03:53:27.907Z,2.95
2023-05-10T03:56:31.100Z,3.00
2023-05-10T03:59:33.893Z,2.92
2023-05-10T04:02:36.457Z,3.47
2023-05-10T04:05:39.131Z,3.10
2023-05-10T04:08:42.217Z,3.28
2023-05-10T04:11:44.588Z,3.03
2023-05-10T04:14:46.974Z,2.95
2023-05-10T04:17:49.532Z,2.90
2023-05-10T04:20:51.983Z,2.90
2023-05-10T04:23:54.421Z,2.83
2023-05-10T04:26:57.904Z,2.77
2023-05-10T04:30:00.542Z,2.30
2023-05-10T04:33:02.991Z,3.13
2023-05-10T04:36:06.082Z,2.88
2023-05-10T04:39:08.555Z,2.80
2023-05-10T04:42:11.122Z,3.10
2023-05-10T04:45:15.589Z,2.97
2023-05-10T04:48:17.961Z,3.27
2023-05-10T04:51:21.504Z,2.92
2023-05-10T04:54:23.941Z,2.58
2023-05-10T04:57:26.392Z,3.10
2023-05-10T05:00:28.821Z,3.10
2023-05-10T05:03:31.252Z,3.38
2023-05-10T05:06:34.070Z,3.63
2023-05-10T05:09:36.603Z,2.67
2023-05-10T05:12:39.088Z,2.85
2023-05-10T05:15:41.528Z,2.75
2023-05-10T05:18:44.112Z,2.80
2023-05-10T05:21:46.738Z,2.95
2023-05-10T05:24:49.139Z,2.90
2023-05-10T05:27:51.610Z,3.10
2023-05-10T05:30:54.106Z,2.58
2023-05-10T05:33:56.767Z,3.15
2023-05-10T05:36:59.159Z,3.10
2023-05-10T05:40:02.775Z,2.90
2023-05-10T05:43:05.197Z,3.08
2023-05-10T05:46:07.572Z,2.85
2023-05-10T05:49:10.028Z,2.93
2023-05-10T05:52:12.668Z,3.10
2023-05-10T05:55:15.311Z,3.80
2023-05-10T05:58:18.005Z,2.83
2023-05-10T06:01:20.644Z,2.75
2023-05-10T06:04:23.258Z,3.00
2023-05-10T06:07:26.414Z,3.53
2023-05-10T06:10:28.938Z,3.15
2023-05-10T06:13:33.698Z,2.78
2023-05-10T06:16:36.342Z,3.15
2023-05-10T06:19:38.857Z,3.20
2023-05-10T06:22:41.271Z,3.35
2023-05-10T06:25:43.756Z,2.60
2023-05-10T06:28:46.209Z,2.67
2023-05-10T06:31:49.172Z,2.92
2023-05-10T06:34:51.951Z,2.75
2023-05-10T06:37:54.349Z,2.80
2023-05-10T06:40:56.801Z,2.90
2023-05-10T06:43:59.293Z,4.28
2023-05-10T06:47:01.692Z,4.10
2023-05-10T06:50:04.284Z,2.50
2023-05-10T06:53:06.738Z,2.88
2023-05-10T06:56:29.088Z,2.92
2023-05-10T06:59:31.553Z,3.73
2023-05-10T07:02:34.168Z,4.47
2023-05-10T07:05:36.987Z,3.83
2023-05-10T07:08:39.397Z,2.30
2023-05-10T07:11:41.807Z,2.95
2023-05-10T07:14:44.161Z,2.60
2023-05-10T07:17:46.735Z,3.10
2023-05-10T07:20:49.172Z,2.67
2023-05-10T07:23:51.614Z,2.67
2023-05-10T07:26:53.978Z,2.85
2023-05-10T07:29:57.579Z,2.70
2023-05-10T07:33:00.322Z,2.60
2023-05-10T07:36:02.767Z,2.70
2023-05-10T07:39:05.169Z,3.05
2023-05-10T07:42:07.526Z,2.70
2023-05-10T07:45:10.415Z,2.80
2023-05-10T07:48:12.773Z,3.17
2023-05-10T07:51:15.134Z,2.63
2023-05-10T07:54:17.550Z,2.80
2023-05-10T07:57:20.800Z,2.80
2023-05-10T08:00:23.260Z,2.83
2023-05-10T08:03:25.675Z,2.70
2023-05-10T08:06:29.315Z,2.47
2023-05-10T08:09:31.689Z,3.03
2023-05-10T08:12:34.041Z,2.47
2023-05-10T08:15:36.423Z,2.83
2023-05-10T08:18:39.979Z,2.80
2023-05-10T08:21:43.409Z,2.53
2023-05-10T08:24:46.198Z,2.72
2023-05-10T08:27:48.581Z,2.88
2023-05-10T08:30:54.066Z,2.80
2023-05-10T08:33:56.675Z,2.35
2023-05-10T08:36:59.056Z,2.58
2023-05-10T08:40:01.546Z,2.72
2023-05-10T08:43:08.154Z,3.03
2023-05-10T08:46:11.631Z,2.60
2023-05-10T08:49:21.214Z,2.70
2023-05-10T08:52:27.604Z,2.70
2023-05-10T08:55:30.452Z,2.63
2023-05-10T08:58:33.016Z,2.60
2023-05-10T09:01:37.701Z,2.53
2023-05-10T09:04:40.207Z,2.40
2023-05-10T09:07:43.095Z,2.50
2023-05-10T09:10:48.190Z,3.05
2023-05-10T09:13:53.239Z,2.60
2023-05-10T09:16:56.453Z,2.67
2023-05-10T09:20:00.566Z,2.40
2023-05-10T09:23:03.103Z,2.27
2023-05-10T09:26:06.434Z,2.17
2023-05-10T09:29:09.468Z,2.17
2023-05-10T09:32:13.859Z,2.10
2023-05-10T09:35:20.295Z,2.10
2023-05-10T09:38:22.678Z,2.25
2023-05-10T09:41:26.013Z,1.83
2023-05-10T09:44:28.530Z,2.17
2023-05-10T09:47:33.582Z,1.85
2023-05-10T09:50:35.971Z,2.10
2023-05-10T09:53:38.534Z,1.43
2023-05-10T09:56:41.711Z,2.05
2023-05-10T09:59:44.503Z,1.77
2023-05-10T10:02:49.075Z,2.43
2023-05-10T10:05:52.297Z,2.42
2023-05-10T10:08:56.758Z,2.00
2023-05-10T10:12:00.761Z,2.10
2023-05-10T10:15:03.307Z,2.05
2023-05-10T10:18:06.578Z,2.78
2023-05-10T10:21:09.761Z,2.13
2023-05-10T10:24:12.105Z,2.37
2023-05-10T10:27:20.420Z,2.75
2023-05-10T10:30:31.117Z,2.63
2023-05-10T10:33:48.576Z,2.40
2023-05-10T10:36:50.965Z,2.10
2023-05-10T10:39:55.769Z,2.17
2023-05-10T10:42:59.074Z,1.95
2023-05-10T10:46:22.892Z,2.63
2023-05-10T10:49:25.878Z,2.35
2023-05-10T10:52:35.956Z,2.50
2023-05-10T10:55:49.178Z,2.17
2023-05-10T10:58:54.835Z,2.40
2023-05-10T11:01:57.598Z,2.50
2023-05-10T11:05:00.269Z,1.90
2023-05-10T11:08:08.476Z,1.50
2023-05-10T11:11:11.169Z,1.60
2023-05-10T11:14:13.538Z,1.95
2023-05-10T11:17:27.731Z,2.00
2023-05-10T11:20:39.504Z,1.85
2023-05-10T11:23:44.622Z,2.70
2023-05-10T11:26:47.341Z,1.90
2023-05-10T11:29:52.787Z,2.10
2023-05-10T11:32:55.702Z,1.73
2023-05-10T11:35:58.260Z,1.70
2023-05-10T11:39:00.798Z,1.70
2023-05-10T11:42:03.359Z,1.70
2023-05-10T11:45:06.849Z,1.40
2023-05-10T11:48:09.324Z,1.70
2023-05-10T11:51:12.353Z,1.90
2023-05-10T11:54:14.900Z,1.50
2023-05-10T11:57:18.917Z,1.83
2023-05-10T12:00:22.300Z,2.40
2023-05-10T12:03:24.822Z,1.90
2023-05-10T12:06:29.732Z,1.67
2023-05-10T12:09:43.270Z,1.40
2023-05-10T12:12:50.888Z,1.80
2023-05-10T12:15:53.510Z,1.20
2023-05-10T12:19:01.361Z,1.50
2023-05-10T12:22:06.496Z,1.80
2023-05-10T12:25:11.815Z,1.58
2023-05-10T12:28:14.199Z,1.47
2023-05-10T12:31:16.666Z,2.00
2023-05-10T12:34:31.484Z,1.80
2023-05-10T12:37:36.832Z,2.30
2023-05-10T12:40:39.255Z,2.17
2023-05-10T12:43:41.962Z,2.05
2023-05-10T12:46:44.328Z,2.20
2023-05-10T12:49:46.885Z,1.38
2023-05-10T12:52:49.199Z,1.88
2023-05-10T12:55:51.586Z,1.88
2023-05-10T12:58:54.021Z,1.80
2023-05-10T13:01:56.457Z,1.80
2023-05-10T13:04:58.884Z,2.15
2023-05-10T13:08:01.497Z,1.70
2023-05-10T13:11:04.450Z,1.40
2023-05-10T13:14:06.773Z,2.03
2023-05-10T13:17:09.434Z,1.60
2023-05-10T13:20:12.255Z,1.58
2023-05-10T13:23:14.661Z,1.30
2023-05-10T13:26:17.104Z,1.63
2023-05-10T13:29:20.290Z,1.50
2023-05-10T13:32:22.724Z,1.52
2023-05-10T13:35:25.169Z,1.30
2023-05-10T13:38:27.535Z,1.47
2023-05-10T13:41:29.995Z,1.48
2023-05-10T13:44:34.405Z,1.50
2023-05-10T13:47:37.404Z,1.20
2023-05-10T13:50:39.806Z,1.60
2023-05-10T13:53:42.450Z,1.70
2023-05-10T13:56:44.983Z,1.55
2023-05-10T13:59:47.665Z,1.27
2023-05-10T14:02:50.060Z,1.70
2023-05-10T14:05:52.492Z,1.23
2023-05-10T14:08:54.955Z,1.70
2023-05-10T14:11:57.523Z,1.27
2023-05-10T14:14:59.889Z,1.38
2023-05-10T14:18:02.721Z,2.20
2023-05-10T14:21:05.181Z,1.40
2023-05-10T14:24:08.208Z,1.50
2023-05-10T14:27:10.519Z,1.38
2023-05-10T14:30:13.249Z,1.17
2023-05-10T14:33:15.923Z,1.73
2023-05-10T14:36:18.647Z,1.50
2023-05-10T14:39:20.974Z,1.20
2023-05-10T14:42:23.351Z,1.00
2023-05-10T14:45:25.714Z,1.10
2023-05-10T14:48:28.106Z,0.93
2023-05-10T14:51:30.780Z,1.40
2023-05-10T14:54:34.495Z,1.27
2023-05-10T14:57:37.141Z,1.05
2023-05-10T15:00:39.520Z,1.13
2023-05-10T15:03:42.322Z,1.23
2023-05-10T15:06:45.320Z,1.35
2023-05-10T15:09:47.766Z,1.50
2023-05-10T15:12:51.082Z,1.23
2023-05-10T15:15:53.724Z,1.50
2023-05-10T15:18:56.156Z,1.15
2023-05-10T15:21:58.639Z,1.55
2023-05-10T15:25:01.138Z,1.45
2023-05-10T15:28:03.963Z,0.93
2023-05-10T15:31:06.329Z,1.50
2023-05-10T15:34:08.683Z,0.85
2023-05-10T15:37:11.066Z,1.23
2023-05-10T15:40:13.461Z,1.83
2023-05-10T15:43:16.267Z,1.30
2023-05-10T15:46:18.638Z,0.98
2023-05-10T15:49:21.227Z,1.30
2023-05-10T15:52:24.405Z,1.13
2023-05-10T15:55:26.975Z,1.65
2023-05-10T15:58:29.331Z,1.00
2023-05-10T16:01:32.909Z,1.40
2023-05-10T16:04:35.347Z,1.33
2023-05-10T16:07:37.758Z,1.20
2023-05-10T16:10:40.139Z,1.00
2023-05-10T16:13:42.565Z,1.13
2023-05-10T16:16:45.055Z,1.08
2023-05-10T16:19:47.557Z,1.10
2023-05-10T16:22:49.964Z,1.10
2023-05-10T16:25:52.332Z,1.25
2023-05-10T16:28:54.771Z,0.80
2023-05-10T16:31:57.147Z,0.90
2023-05-10T16:35:00.438Z,1.40
2023-05-10T16:38:03.062Z,2.00
2023-05-10T16:41:06.732Z,4.27
2023-05-10T16:44:09.083Z,2.20
2023-05-10T16:47:11.383Z,1.77
2023-05-10T16:50:14.937Z,2.95
2023-05-10T16:53:17.346Z,2.50
2023-05-10T16:56:21.795Z,2.67
2023-05-10T16:59:24.247Z,2.80
2023-05-10T17:02:26.826Z,2.67
2023-05-10T17:05:29.518Z,3.85
2023-05-10T17:08:31.846Z,3.15
2023-05-10T17:11:34.264Z,3.13
2023-05-10T17:14:38.200Z,1.48
2023-05-10T17:17:40.594Z,1.13
2023-05-10T17:20:44.729Z,1.50
2023-05-10T17:23:47.082Z,1.25
2023-05-10T17:26:49.424Z,1.20
2023-05-10T17:29:56.453Z,2.15
2023-05-10T17:33:00.153Z,2.00
2023-05-10T17:36:02.708Z,2.65
2023-05-10T17:39:05.139Z,1.85
2023-05-10T17:42:07.597Z,1.73
2023-05-10T17:45:10.775Z,3.42
2023-05-10T17:48:13.468Z,1.98
2023-05-10T17:51:15.833Z,1.55
2023-05-10T17:54:18.231Z,1.02
2023-05-10T17:57:20.891Z,1.50
2023-05-10T18:00:23.348Z,1.35
2023-05-10T18:03:25.840Z,1.67
2023-05-10T18:06:28.436Z,2.10
2023-05-10T18:09:30.968Z,2.35
2023-05-10T18:12:33.301Z,4.70
2023-05-10T18:15:35.725Z,11.15
2023-05-10T18:18:39.396Z,5.15
2023-05-10T18:21:41.793Z,3.22
2023-05-10T18:24:44.203Z,2.40
2023-05-10T18:27:46.533Z,1.98
2023-05-10T18:30:48.909Z,1.40
2023-05-10T18:33:51.258Z,1.30
2023-05-10T18:36:53.845Z,1.67
2023-05-10T18:39:57.710Z,1.30
2023-05-10T18:43:00.271Z,1.60
2023-05-10T18:46:02.670Z,2.85
2023-05-10T18:49:05.868Z,1.98
2023-05-10T18:52:08.227Z,1.40
2023-05-10T18:55:10.727Z,1.92
2023-05-10T18:58:13.078Z,1.90
2023-05-10T19:01:16.346Z,1.50
2023-05-10T19:04:18.817Z,1.50
2023-05-10T19:07:21.190Z,1.70
2023-05-10T19:10:23.722Z,1.50
2023-05-10T19:13:28.331Z,1.73
2023-05-10T19:16:30.945Z,1.67
2023-05-10T19:19:33.795Z,1.50
2023-05-10T19:22:54.042Z,1.75
2023-05-10T19:25:59.850Z,1.33
2023-05-10T19:29:02.377Z,1.60
2023-05-10T19:32:05.197Z,1.65
2023-05-10T19:35:08.393Z,1.33
2023-05-10T19:38:11.014Z,1.40
2023-05-10T19:41:14.771Z,1.30
2023-05-10T19:44:18.074Z,1.70
2023-05-10T19:47:21.427Z,1.40
2023-05-10T19:50:23.824Z,1.40
2023-05-10T19:53:26.273Z,1.40
2023-05-10T19:56:29.666Z,1.42
2023-05-10T19:59:32.032Z,1.70
2023-05-10T20:02:34.407Z,1.30
2023-05-10T20:05:37.042Z,1.27
2023-05-10T20:08:39.399Z,1.50
2023-05-10T20:11:41.758Z,1.48
2023-05-10T20:14:44.401Z,1.30
2023-05-10T20:17:48.093Z,1.23
2023-05-10T20:20:55.127Z,1.40
2023-05-10T20:23:58.246Z,1.60
2023-05-10T20:27:00.910Z,1.50
2023-05-10T20:30:04.596Z,1.60
2023-05-10T20:33:07.151Z,1.55
2023-05-10T20:36:12.275Z,1.40
2023-05-10T20:39:15.073Z,1.95
2023-05-10T20:42:17.475Z,1.13
2023-05-10T20:45:20.471Z,1.37
2023-05-10T20:48:22.967Z,0.93
2023-05-10T20:51:25.456Z,1.25
2023-05-10T20:54:27.893Z,1.33
2023-05-10T20:57:30.307Z,1.30
2023-05-10T21:00:32.639Z,1.20
2023-05-10T21:03:35.191Z,1.38
2023-05-10T21:06:37.642Z,1.20
2023-05-10T21:09:39.967Z,1.25
2023-05-10T21:12:42.335Z,1.40
2023-05-10T21:15:44.703Z,1.03
2023-05-10T21:18:47.266Z,1.00
2023-05-10T21:21:49.599Z,1.20
2023-05-10T21:24:51.990Z,1.40
2023-05-10T21:27:54.312Z,1.27
2023-05-10T21:30:56.834Z,1.40
2023-05-10T21:33:59.197Z,1.35
2023-05-10T21:37:01.655Z,1.10
2023-05-10T21:40:04.883Z,1.00
2023-05-10T21:43:08.269Z,1.25
2023-05-10T21:46:10.802Z,1.40
2023-05-10T21:49:13.247Z,1.02
2023-05-10T21:52:15.572Z,0.80
2023-05-10T21:55:18.328Z,1.40
2023-05-10T21:58:20.860Z,1.00
2023-05-10T22:01:23.295Z,1.30
2023-05-10T22:04:25.658Z,1.40
2023-05-10T22:07:28.144Z,1.10
2023-05-10T22:10:30.497Z,1.40
2023-05-10T22:13:32.838Z,1.30
2023-05-10T22:16:35.684Z,0.90
2023-05-10T22:19:38.130Z,1.08
2023-05-10T22:22:40.438Z,1.17
2023-05-10T22:25:43.034Z,0.98
2023-05-10T22:28:45.403Z,1.30
2023-05-10T22:31:47.851Z,1.30
2023-05-10T22:34:50.224Z,1.48
2023-05-10T22:37:52.572Z,1.17
2023-05-10T22:40:54.937Z,1.23
2023-05-10T22:43:57.274Z,1.25
2023-05-10T22:46:59.903Z,1.10
2023-05-10T22:50:05.423Z,1.00
2023-05-10T22:53:08.081Z,1.25
2023-05-10T22:56:10.475Z,1.23
2023-05-10T22:59:12.840Z,1.13
2023-05-10T23:02:15.475Z,1.17
2023-05-10T23:05:18.114Z,0.95
2023-05-10T23:08:20.468Z,1.07
2023-05-10T23:11:22.897Z,1.40
2023-05-10T23:14:25.246Z,1.38
2023-05-10T23:17:27.640Z,1.10
2023-05-10T23:20:30.068Z,1.00
2023-05-10T23:23:34.035Z,1.33
2023-05-10T23:26:36.411Z,1.42
2023-05-10T23:29:38.773Z,1.15
2023-05-10T23:32:41.129Z,1.45
2023-05-10T23:35:43.552Z,1.48
2023-05-10T23:38:45.990Z,1.00
2023-05-10T23:41:48.358Z,1.20
2023-05-10T23:44:52.299Z,1.52
2023-05-10T23:47:54.721Z,1.40
2023-05-10T23:50:57.122Z,1.65
2023-05-10T23:53:59.601Z,1.17
2023-05-10T23:57:02.087Z,1.95
